sensor_id;sensor_type;location;lat;lon;timestamp;temperature;humidity
16102;DHT22;56411;52.964;10.540;2024-03-23T00:53:08;7.10;99.90
16102;DHT22;56411;52.964;10.540;2024-03-23T00:55:35;7.10;99.90
16102;DHT22;56411;52.964;10.540;2024-03-23T00:58:01;7.10;99.90
16102;DHT22;56411;52.964;10.540;2024-03-23T01:00:28;7.10;99.90
16102;DHT22;56411;52.964;10.540;2024-03-23T01:02:54;7.10;99.90
16102;DHT22;56411;52.964;10.540;2024-03-23T01:05:21;7.10;99.90
16102;DHT22;56411;52.964;10.540;2024-03-23T01:07:47;7.10;99.90
16102;DHT22;56411;52.964;10.540;2024-03-23T01:10:15;7.10;99.90
16102;DHT22;56411;52.964;10.540;2024-03-23T01:12:41;7.10;99.90
16102;DHT22;56411;52.964;10.540;2024-03-23T01:15:08;7.10;99.90
16102;DHT22;56411;52.964;10.540;2024-03-23T01:17:34;7.10;99.90
16102;DHT22;56411;52.964;10.540;2024-03-23T01:20:02;7.10;99.90
16102;DHT22;56411;52.964;10.540;2024-03-23T01:22:28;7.00;99.90
16102;DHT22;56411;52.964;10.540;2024-03-23T01:24:55;7.00;99.90
16102;DHT22;56411;52.964;10.540;2024-03-23T01:27:22;7.00;99.90
16102;DHT22;56411;52.964;10.540;2024-03-23T01:29:49;7.00;99.90
16102;DHT22;56411;52.964;10.540;2024-03-23T01:32:17;7.00;99.90
16102;DHT22;56411;52.964;10.540;2024-03-23T01:34:45;7.00;99.90
16102;DHT22;56411;52.964;10.540;2024-03-23T01:37:11;7.00;99.90
16102;DHT22;56411;52.964;10.540;2024-03-23T01:39:38;7.00;99.90
16102;DHT22;56411;52.964;10.540;2024-03-23T01:42:04;7.00;99.90
16102;DHT22;56411;52.964;10.540;2024-03-23T01:44:32;6.90;99.90
16102;DHT22;56411;52.964;10.540;2024-03-23T01:46:58;6.90;99.90
16102;DHT22;56411;52.964;10.540;2024-03-23T01:49:25;6.90;99.90
16102;DHT22;56411;52.964;10.540;2024-03-23T01:51:51;6.90;99.90
16102;DHT22;56411;52.964;10.540;2024-03-23T01:54:20;6.90;99.90
16102;DHT22;56411;52.964;10.540;2024-03-23T01:56:46;6.90;99.90
16102;DHT22;56411;52.964;10.540;2024-03-23T01:59:13;6.90;99.90
16102;DHT22;56411;52.964;10.540;2024-03-23T02:01:41;6.90;99.90
16102;DHT22;56411;52.964;10.540;2024-03-23T02:04:08;6.90;99.90
16102;DHT22;56411;52.964;10.540;2024-03-23T02:06:35;6.90;99.90
16102;DHT22;56411;52.964;10.540;2024-03-23T02:09:02;6.90;99.90
16102;DHT22;56411;52.964;10.540;2024-03-23T02:11:29;6.80;99.90
16102;DHT22;56411;52.964;10.540;2024-03-23T02:13:56;6.80;99.90
16102;DHT22;56411;52.964;10.540;2024-03-23T02:16:22;6.80;99.90
16102;DHT22;56411;52.964;10.540;2024-03-23T02:18:51;6.80;99.90
16102;DHT22;56411;52.964;10.540;2024-03-23T02:21:17;6.90;99.90
16102;DHT22;56411;52.964;10.540;2024-03-23T02:23:45;6.90;99.90
16102;DHT22;56411;52.964;10.540;2024-03-23T02:26:11;6.90;99.90
16102;DHT22;56411;52.964;10.540;2024-03-23T02:28:39;6.90;99.90
16102;DHT22;56411;52.964;10.540;2024-03-23T02:31:05;6.90;99.90
16102;DHT22;56411;52.964;10.540;2024-03-23T02:33:32;6.90;99.90
16102;DHT22;56411;52.964;10.540;2024-03-23T02:36:00;6.90;99.90
16102;DHT22;56411;52.964;10.540;2024-03-23T02:38:26;6.80;99.90
16102;DHT22;56411;52.964;10.540;2024-03-23T02:40:54;6.80;99.90
16102;DHT22;56411;52.964;10.540;2024-03-23T02:43:21;6.80;99.90
16102;DHT22;56411;52.964;10.540;2024-03-23T02:45:47;6.80;99.90
16102;DHT22;56411;52.964;10.540;2024-03-23T02:48:14;6.80;99.90
16102;DHT22;56411;52.964;10.540;2024-03-23T02:50:40;6.80;99.90
16102;DHT22;56411;52.964;10.540;2024-03-23T02:53:07;6.80;99.90
16102;DHT22;56411;52.964;10.540;2024-03-23T02:55:33;6.80;99.90
16102;DHT22;56411;52.964;10.540;2024-03-23T02:58:01;6.70;99.90
16102;DHT22;56411;52.964;10.540;2024-03-23T03:00:27;6.70;99.90
16102;DHT22;56411;52.964;10.540;2024-03-23T03:02:54;6.70;99.90
16102;DHT22;56411;52.964;10.540;2024-03-23T03:05:21;6.70;99.90
16102;DHT22;56411;52.964;10.540;2024-03-23T03:07:48;6.70;99.90
16102;DHT22;56411;52.964;10.540;2024-03-23T03:10:14;6.60;99.90
16102;DHT22;56411;52.964;10.540;2024-03-23T03:12:41;6.60;99.90
16102;DHT22;56411;52.964;10.540;2024-03-23T03:15:09;6.60;99.90
16102;DHT22;56411;52.964;10.540;2024-03-23T03:17:36;6.60;99.90
16102;DHT22;56411;52.964;10.540;2024-03-23T03:20:03;6.70;99.90
16102;DHT22;56411;52.964;10.540;2024-03-23T03:22:30;6.60;99.90
16102;DHT22;56411;52.964;10.540;2024-03-23T03:24:56;6.60;99.90
16102;DHT22;56411;52.964;10.540;2024-03-23T03:27:23;6.60;99.90
16102;DHT22;56411;52.964;10.540;2024-03-23T03:29:50;6.60;99.90
16102;DHT22;56411;52.964;10.540;2024-03-23T03:32:18;6.50;99.90
16102;DHT22;56411;52.964;10.540;2024-03-23T03:34:44;6.50;99.90
16102;DHT22;56411;52.964;10.540;2024-03-23T03:37:11;6.50;99.90
16102;DHT22;56411;52.964;10.540;2024-03-23T03:39:37;6.50;99.90
16102;DHT22;56411;52.964;10.540;2024-03-23T03:42:04;6.50;99.90
16102;DHT22;56411;52.964;10.540;2024-03-23T03:44:32;6.50;99.90
16102;DHT22;56411;52.964;10.540;2024-03-23T03:46:59;6.50;99.90
16102;DHT22;56411;52.964;10.540;2024-03-23T03:49:27;6.50;99.90
16102;DHT22;56411;52.964;10.540;2024-03-23T03:51:54;6.50;99.90
16102;DHT22;56411;52.964;10.540;2024-03-23T03:54:20;6.50;99.90
16102;DHT22;56411;52.964;10.540;2024-03-23T03:56:47;6.40;99.90
16102;DHT22;56411;52.964;10.540;2024-03-23T03:59:13;6.40;99.90
16102;DHT22;56411;52.964;10.540;2024-03-23T04:01:41;6.40;99.90
16102;DHT22;56411;52.964;10.540;2024-03-23T04:04:08;6.40;99.90
16102;DHT22;56411;52.964;10.540;2024-03-23T04:06:35;6.30;99.90
16102;DHT22;56411;52.964;10.540;2024-03-23T04:09:03;6.30;99.90
16102;DHT22;56411;52.964;10.540;2024-03-23T04:11:29;6.30;99.90
16102;DHT22;56411;52.964;10.540;2024-03-23T04:13:56;6.30;99.90
16102;DHT22;56411;52.964;10.540;2024-03-23T04:16:27;6.20;99.90
16102;DHT22;56411;52.964;10.540;2024-03-23T04:18:55;6.20;99.90
16102;DHT22;56411;52.964;10.540;2024-03-23T04:21:22;6.20;99.90
16102;DHT22;56411;52.964;10.540;2024-03-23T04:23:50;6.20;99.90
16102;DHT22;56411;52.964;10.540;2024-03-23T04:26:16;6.10;99.90
16102;DHT22;56411;52.964;10.540;2024-03-23T04:28:43;6.10;99.90
16102;DHT22;56411;52.964;10.540;2024-03-23T04:31:09;6.10;99.90
16102;DHT22;56411;52.964;10.540;2024-03-23T04:33:36;6.10;99.90
16102;DHT22;56411;52.964;10.540;2024-03-23T04:36:02;6.10;99.90
16102;DHT22;56411;52.964;10.540;2024-03-23T04:38:37;6.10;99.90
16102;DHT22;56411;52.964;10.540;2024-03-23T04:41:05;6.10;99.90
16102;DHT22;56411;52.964;10.540;2024-03-23T04:43:32;6.10;99.90
16102;DHT22;56411;52.964;10.540;2024-03-23T04:45:59;6.10;99.90
16102;DHT22;56411;52.964;10.540;2024-03-23T04:48:26;6.10;99.90
16102;DHT22;56411;52.964;10.540;2024-03-23T04:50:55;6.10;99.90
16102;DHT22;56411;52.964;10.540;2024-03-23T04:53:23;6.00;99.90
16102;DHT22;56411;52.964;10.540;2024-03-23T04:55:54;6.00;99.90
16102;DHT22;56411;52.964;10.540;2024-03-23T04:58:22;6.00;99.90
16102;DHT22;56411;52.964;10.540;2024-03-23T05:00:53;6.00;99.90
16102;DHT22;56411;52.964;10.540;2024-03-23T05:03:20;6.10;99.90
16102;DHT22;56411;52.964;10.540;2024-03-23T05:05:47;6.10;99.90
16102;DHT22;56411;52.964;10.540;2024-03-23T05:08:14;6.00;99.90
16102;DHT22;56411;52.964;10.540;2024-03-23T05:10:41;6.00;99.90
16102;DHT22;56411;52.964;10.540;2024-03-23T05:13:08;6.00;99.90
16102;DHT22;56411;52.964;10.540;2024-03-23T05:15:36;6.00;99.90
16102;DHT22;56411;52.964;10.540;2024-03-23T05:18:04;6.00;99.90
16102;DHT22;56411;52.964;10.540;2024-03-23T05:20:30;6.00;99.90
16102;DHT22;56411;52.964;10.540;2024-03-23T05:22:58;6.00;99.90
16102;DHT22;56411;52.964;10.540;2024-03-23T05:25:24;6.00;99.90
16102;DHT22;56411;52.964;10.540;2024-03-23T05:27:51;6.00;99.90
16102;DHT22;56411;52.964;10.540;2024-03-23T05:30:17;6.00;99.90
16102;DHT22;56411;52.964;10.540;2024-03-23T05:32:45;6.00;99.90
16102;DHT22;56411;52.964;10.540;2024-03-23T05:35:11;6.00;99.90
16102;DHT22;56411;52.964;10.540;2024-03-23T05:37:38;6.00;99.90
16102;DHT22;56411;52.964;10.540;2024-03-23T05:40:04;6.00;99.90
16102;DHT22;56411;52.964;10.540;2024-03-23T05:42:32;6.00;99.90
16102;DHT22;56411;52.964;10.540;2024-03-23T05:44:58;6.00;99.90
16102;DHT22;56411;52.964;10.540;2024-03-23T05:47:25;6.00;99.90
16102;DHT22;56411;52.964;10.540;2024-03-23T05:49:52;6.00;99.90
16102;DHT22;56411;52.964;10.540;2024-03-23T05:52:20;6.10;99.90
16102;DHT22;56411;52.964;10.540;2024-03-23T05:54:46;6.10;99.90
16102;DHT22;56411;52.964;10.540;2024-03-23T05:57:13;6.10;99.90
16102;DHT22;56411;52.964;10.540;2024-03-23T05:59:39;6.10;99.90
16102;DHT22;56411;52.964;10.540;2024-03-23T06:02:06;6.10;99.90
16102;DHT22;56411;52.964;10.540;2024-03-23T06:04:33;6.10;99.90
16102;DHT22;56411;52.964;10.540;2024-03-23T06:07:01;6.10;99.90
16102;DHT22;56411;52.964;10.540;2024-03-23T06:09:27;6.20;99.90
16102;DHT22;56411;52.964;10.540;2024-03-23T06:11:57;6.20;99.90
16102;DHT22;56411;52.964;10.540;2024-03-23T06:14:23;6.20;99.90
16102;DHT22;56411;52.964;10.540;2024-03-23T06:16:50;6.20;99.90
16102;DHT22;56411;52.964;10.540;2024-03-23T06:19:16;6.20;99.90
16102;DHT22;56411;52.964;10.540;2024-03-23T06:21:44;6.20;99.90
16102;DHT22;56411;52.964;10.540;2024-03-23T06:24:11;6.30;99.90
16102;DHT22;56411;52.964;10.540;2024-03-23T06:26:38;6.20;99.90
16102;DHT22;56411;52.964;10.540;2024-03-23T06:29:04;6.30;99.90
16102;DHT22;56411;52.964;10.540;2024-03-23T06:31:32;6.30;99.90
16102;DHT22;56411;52.964;10.540;2024-03-23T06:33:58;6.30;99.90
16102;DHT22;56411;52.964;10.540;2024-03-23T06:36:25;6.30;99.90
16102;DHT22;56411;52.964;10.540;2024-03-23T06:38:51;6.40;99.90
16102;DHT22;56411;52.964;10.540;2024-03-23T06:41:19;6.30;99.90
16102;DHT22;56411;52.964;10.540;2024-03-23T06:43:45;6.40;99.90
16102;DHT22;56411;52.964;10.540;2024-03-23T06:46:12;6.40;99.90
16102;DHT22;56411;52.964;10.540;2024-03-23T06:48:38;6.40;99.90
16102;DHT22;56411;52.964;10.540;2024-03-23T06:51:05;6.40;99.90
16102;DHT22;56411;52.964;10.540;2024-03-23T06:53:34;6.40;99.90
16102;DHT22;56411;52.964;10.540;2024-03-23T06:56:00;6.40;99.90
16102;DHT22;56411;52.964;10.540;2024-03-23T06:58:29;6.50;99.90
16102;DHT22;56411;52.964;10.540;2024-03-23T07:00:55;6.50;99.90
16102;DHT22;56411;52.964;10.540;2024-03-23T07:03:22;6.50;99.90
16102;DHT22;56411;52.964;10.540;2024-03-23T07:05:49;6.50;99.90
16102;DHT22;56411;52.964;10.540;2024-03-23T07:08:16;6.50;99.90
16102;DHT22;56411;52.964;10.540;2024-03-23T07:10:47;6.50;99.90
16102;DHT22;56411;52.964;10.540;2024-03-23T07:13:14;6.50;99.90
16102;DHT22;56411;52.964;10.540;2024-03-23T07:15:41;6.60;99.90
16102;DHT22;56411;52.964;10.540;2024-03-23T07:18:08;6.60;99.90
16102;DHT22;56411;52.964;10.540;2024-03-23T07:20:34;6.70;99.90
16102;DHT22;56411;52.964;10.540;2024-03-23T07:23:01;6.70;99.90
16102;DHT22;56411;52.964;10.540;2024-03-23T07:25:27;6.70;99.90
16102;DHT22;56411;52.964;10.540;2024-03-23T07:27:54;6.70;99.90
16102;DHT22;56411;52.964;10.540;2024-03-23T07:30:20;6.80;99.90
16102;DHT22;56411;52.964;10.540;2024-03-23T07:32:49;6.80;99.90
16102;DHT22;56411;52.964;10.540;2024-03-23T07:35:15;6.80;99.90
16102;DHT22;56411;52.964;10.540;2024-03-23T07:37:42;6.90;99.90
16102;DHT22;56411;52.964;10.540;2024-03-23T07:40:09;6.90;99.90
16102;DHT22;56411;52.964;10.540;2024-03-23T07:42:37;6.90;99.90
16102;DHT22;56411;52.964;10.540;2024-03-23T07:45:04;6.90;99.90
16102;DHT22;56411;52.964;10.540;2024-03-23T07:47:31;6.90;99.90
16102;DHT22;56411;52.964;10.540;2024-03-23T07:49:58;6.90;99.90
16102;DHT22;56411;52.964;10.540;2024-03-23T07:52:28;6.80;99.90
16102;DHT22;56411;52.964;10.540;2024-03-23T07:54:54;6.80;99.90
16102;DHT22;56411;52.964;10.540;2024-03-23T07:57:21;6.80;99.90
16102;DHT22;56411;52.964;10.540;2024-03-23T07:59:47;6.80;99.90
16102;DHT22;56411;52.964;10.540;2024-03-23T08:02:14;6.90;99.90
16102;DHT22;56411;52.964;10.540;2024-03-23T08:04:40;6.90;99.90
16102;DHT22;56411;52.964;10.540;2024-03-23T08:07:08;6.90;99.90
16102;DHT22;56411;52.964;10.540;2024-03-23T08:09:34;7.00;99.90
16102;DHT22;56411;52.964;10.540;2024-03-23T08:12:01;7.10;99.90
16102;DHT22;56411;52.964;10.540;2024-03-23T08:14:28;7.10;99.90
16102;DHT22;56411;52.964;10.540;2024-03-23T08:16:55;7.20;99.90
16102;DHT22;56411;52.964;10.540;2024-03-23T08:19:21;7.30;99.90
16102;DHT22;56411;52.964;10.540;2024-03-23T08:21:48;7.40;99.90
16102;DHT22;56411;52.964;10.540;2024-03-23T08:24:17;7.40;99.90
16102;DHT22;56411;52.964;10.540;2024-03-23T08:26:45;7.40;99.90
16102;DHT22;56411;52.964;10.540;2024-03-23T08:29:11;7.50;99.90
16102;DHT22;56411;52.964;10.540;2024-03-23T08:31:38;7.50;99.90
16102;DHT22;56411;52.964;10.540;2024-03-23T08:34:04;7.60;99.90
16102;DHT22;56411;52.964;10.540;2024-03-23T08:36:31;7.60;99.90
16102;DHT22;56411;52.964;10.540;2024-03-23T08:38:57;7.60;99.90
16102;DHT22;56411;52.964;10.540;2024-03-23T08:41:25;7.70;99.90
16102;DHT22;56411;52.964;10.540;2024-03-23T08:43:51;7.70;99.90
16102;DHT22;56411;52.964;10.540;2024-03-23T08:46:18;7.80;99.90
16102;DHT22;56411;52.964;10.540;2024-03-23T08:48:46;7.80;99.90
16102;DHT22;56411;52.964;10.540;2024-03-23T08:51:16;7.80;99.90
16102;DHT22;56411;52.964;10.540;2024-03-23T08:53:42;7.80;99.90
16102;DHT22;56411;52.964;10.540;2024-03-23T08:56:10;7.90;99.90
16102;DHT22;56411;52.964;10.540;2024-03-23T08:58:38;7.90;99.90
16102;DHT22;56411;52.964;10.540;2024-03-23T09:01:07;8.00;99.90
16102;DHT22;56411;52.964;10.540;2024-03-23T09:03:34;8.00;99.90
16102;DHT22;56411;52.964;10.540;2024-03-23T09:06:07;8.00;99.90
16102;DHT22;56411;52.964;10.540;2024-03-23T09:08:52;8.10;99.90
16102;DHT22;56411;52.964;10.540;2024-03-23T09:11:47;8.20;99.90
16102;DHT22;56411;52.964;10.540;2024-03-23T09:15:11;8.30;99.90
16102;DHT22;56411;52.964;10.540;2024-03-23T09:17:52;8.40;99.90
16102;DHT22;56411;52.964;10.540;2024-03-23T09:20:43;8.50;99.90
16102;DHT22;56411;52.964;10.540;2024-03-23T09:27:08;8.70;99.90
16102;DHT22;56411;52.964;10.540;2024-03-23T09:29:42;8.90;99.90
16102;DHT22;56411;52.964;10.540;2024-03-23T09:32:17;9.00;99.90
16102;DHT22;56411;52.964;10.540;2024-03-23T09:34:51;9.10;99.90
16102;DHT22;56411;52.964;10.540;2024-03-23T09:37:17;9.20;99.90
16102;DHT22;56411;52.964;10.540;2024-03-23T09:39:44;9.30;99.90
16102;DHT22;56411;52.964;10.540;2024-03-23T09:42:12;9.40;99.90
16102;DHT22;56411;52.964;10.540;2024-03-23T09:44:42;9.40;99.90
16102;DHT22;56411;52.964;10.540;2024-03-23T09:47:08;9.30;99.90
16102;DHT22;56411;52.964;10.540;2024-03-23T09:49:40;9.30;99.90
16102;DHT22;56411;52.964;10.540;2024-03-23T09:52:06;9.40;99.90
16102;DHT22;56411;52.964;10.540;2024-03-23T09:54:34;9.40;99.90
16102;DHT22;56411;52.964;10.540;2024-03-23T09:57:04;9.40;99.90
16102;DHT22;56411;52.964;10.540;2024-03-23T09:59:33;9.40;99.90
16102;DHT22;56411;52.964;10.540;2024-03-23T10:02:00;9.50;99.90
16102;DHT22;56411;52.964;10.540;2024-03-23T10:04:39;9.60;99.90
16102;DHT22;56411;52.964;10.540;2024-03-23T10:07:11;9.50;99.90
16102;DHT22;56411;52.964;10.540;2024-03-23T10:09:39;9.50;99.90
16102;DHT22;56411;52.964;10.540;2024-03-23T10:12:12;9.50;99.90
16102;DHT22;56411;52.964;10.540;2024-03-23T10:14:41;9.50;99.90
16102;DHT22;56411;52.964;10.540;2024-03-23T10:17:15;9.60;99.90
16102;DHT22;56411;52.964;10.540;2024-03-23T10:19:52;9.50;99.90
16102;DHT22;56411;52.964;10.540;2024-03-23T10:22:36;9.50;99.90
16102;DHT22;56411;52.964;10.540;2024-03-23T10:25:12;9.50;99.90
16102;DHT22;56411;52.964;10.540;2024-03-23T10:27:39;9.40;99.90
16102;DHT22;56411;52.964;10.540;2024-03-23T10:30:10;9.50;99.90
16102;DHT22;56411;52.964;10.540;2024-03-23T10:32:37;9.60;99.90
16102;DHT22;56411;52.964;10.540;2024-03-23T10:35:19;9.70;99.90
16102;DHT22;56411;52.964;10.540;2024-03-23T10:37:47;9.90;99.90
16102;DHT22;56411;52.964;10.540;2024-03-23T10:40:24;10.00;99.90
16102;DHT22;56411;52.964;10.540;2024-03-23T10:43:12;10.10;99.90
16102;DHT22;56411;52.964;10.540;2024-03-23T10:45:41;10.10;99.90
16102;DHT22;56411;52.964;10.540;2024-03-23T10:48:07;10.10;99.90
16102;DHT22;56411;52.964;10.540;2024-03-23T10:50:39;10.10;99.90
16102;DHT22;56411;52.964;10.540;2024-03-23T10:56:06;9.60;99.90
16102;DHT22;56411;52.964;10.540;2024-03-23T10:58:49;9.50;99.90
16102;DHT22;56411;52.964;10.540;2024-03-23T11:05:31;9.30;99.90
16102;DHT22;56411;52.964;10.540;2024-03-23T11:11:43;9.10;99.90
16102;DHT22;56411;52.964;10.540;2024-03-23T11:31:24;9.30;99.90
16102;DHT22;56411;52.964;10.540;2024-03-23T11:37:03;9.40;99.90
16102;DHT22;56411;52.964;10.540;2024-03-23T11:39:30;9.60;99.90
16102;DHT22;56411;52.964;10.540;2024-03-23T11:42:06;9.70;99.90
16102;DHT22;56411;52.964;10.540;2024-03-23T11:44:48;9.80;99.90
16102;DHT22;56411;52.964;10.540;2024-03-23T11:47:31;9.80;99.90
16102;DHT22;56411;52.964;10.540;2024-03-23T11:49:58;9.50;99.90
16102;DHT22;56411;52.964;10.540;2024-03-23T11:52:24;9.20;99.90
16102;DHT22;56411;52.964;10.540;2024-03-23T11:54:52;9.10;99.90
16102;DHT22;56411;52.964;10.540;2024-03-23T11:57:28;8.90;99.90
16102;DHT22;56411;52.964;10.540;2024-03-23T12:00:24;9.00;99.90
16102;DHT22;56411;52.964;10.540;2024-03-23T12:03:00;9.00;99.90
16102;DHT22;56411;52.964;10.540;2024-03-23T12:05:48;9.10;99.90
16102;DHT22;56411;52.964;10.540;2024-03-23T12:11:32;9.00;99.90
16102;DHT22;56411;52.964;10.540;2024-03-23T12:14:01;8.90;99.90
16102;DHT22;56411;52.964;10.540;2024-03-23T12:23:51;8.60;99.90
16102;DHT22;56411;52.964;10.540;2024-03-23T12:27:36;8.60;99.90
16102;DHT22;56411;52.964;10.540;2024-03-23T12:37:04;8.60;99.90
16102;DHT22;56411;52.964;10.540;2024-03-23T12:43:03;8.70;99.90
16102;DHT22;56411;52.964;10.540;2024-03-23T12:45:46;8.70;99.90
16102;DHT22;56411;52.964;10.540;2024-03-23T12:48:18;8.80;99.90
16102;DHT22;56411;52.964;10.540;2024-03-23T12:50:55;8.90;99.90
16102;DHT22;56411;52.964;10.540;2024-03-23T12:53:45;9.00;99.90
16102;DHT22;56411;52.964;10.540;2024-03-23T12:56:46;9.10;99.90
16102;DHT22;56411;52.964;10.540;2024-03-23T12:59:38;9.10;99.90
16102;DHT22;56411;52.964;10.540;2024-03-23T13:02:06;9.20;99.90
16102;DHT22;56411;52.964;10.540;2024-03-23T13:04:32;9.20;99.90
16102;DHT22;56411;52.964;10.540;2024-03-23T13:07:00;9.20;99.90
16102;DHT22;56411;52.964;10.540;2024-03-23T13:09:26;9.10;99.90
16102;DHT22;56411;52.964;10.540;2024-03-23T13:11:58;9.20;99.90
16102;DHT22;56411;52.964;10.540;2024-03-23T13:14:35;9.30;99.90
16102;DHT22;56411;52.964;10.540;2024-03-23T13:17:02;9.40;99.90
16102;DHT22;56411;52.964;10.540;2024-03-23T13:19:29;9.50;99.90
16102;DHT22;56411;52.964;10.540;2024-03-23T13:21:57;9.50;99.90
16102;DHT22;56411;52.964;10.540;2024-03-23T13:24:24;9.50;99.90
16102;DHT22;56411;52.964;10.540;2024-03-23T13:26:51;9.50;99.90
16102;DHT22;56411;52.964;10.540;2024-03-23T13:29:19;9.50;99.90
16102;DHT22;56411;52.964;10.540;2024-03-23T13:31:48;9.50;99.90
16102;DHT22;56411;52.964;10.540;2024-03-23T13:34:14;9.50;99.90
16102;DHT22;56411;52.964;10.540;2024-03-23T13:36:42;9.60;99.90
16102;DHT22;56411;52.964;10.540;2024-03-23T13:39:09;9.60;99.90
16102;DHT22;56411;52.964;10.540;2024-03-23T13:41:41;9.70;99.90
16102;DHT22;56411;52.964;10.540;2024-03-23T13:44:08;9.70;99.90
16102;DHT22;56411;52.964;10.540;2024-03-23T13:46:38;9.80;99.90
16102;DHT22;56411;52.964;10.540;2024-03-23T13:49:06;9.90;99.90
16102;DHT22;56411;52.964;10.540;2024-03-23T13:51:33;10.00;99.90
16102;DHT22;56411;52.964;10.540;2024-03-23T13:53:59;10.00;99.90
16102;DHT22;56411;52.964;10.540;2024-03-23T13:56:27;10.00;99.90
16102;DHT22;56411;52.964;10.540;2024-03-23T13:59:08;10.00;99.90
16102;DHT22;56411;52.964;10.540;2024-03-23T14:01:52;10.10;99.90
16102;DHT22;56411;52.964;10.540;2024-03-23T14:04:27;10.20;99.90
16102;DHT22;56411;52.964;10.540;2024-03-23T14:07:11;10.20;99.90
16102;DHT22;56411;52.964;10.540;2024-03-23T14:09:45;10.30;99.90
16102;DHT22;56411;52.964;10.540;2024-03-23T14:12:13;10.30;99.90
16102;DHT22;56411;52.964;10.540;2024-03-23T14:14:42;10.30;99.90
16102;DHT22;56411;52.964;10.540;2024-03-23T14:17:11;10.20;99.90
16102;DHT22;56411;52.964;10.540;2024-03-23T14:19:40;10.20;99.90
16102;DHT22;56411;52.964;10.540;2024-03-23T14:22:07;10.10;99.90
16102;DHT22;56411;52.964;10.540;2024-03-23T14:24:33;10.00;99.90
16102;DHT22;56411;52.964;10.540;2024-03-23T14:27:00;10.00;99.90
16102;DHT22;56411;52.964;10.540;2024-03-23T14:29:33;9.80;99.90
16102;DHT22;56411;52.964;10.540;2024-03-23T14:32:10;9.10;99.90
16102;DHT22;56411;52.964;10.540;2024-03-23T14:34:36;8.60;99.90
16102;DHT22;56411;52.964;10.540;2024-03-23T14:37:04;8.00;99.90
16102;DHT22;56411;52.964;10.540;2024-03-23T14:39:41;7.70;99.90
16102;DHT22;56411;52.964;10.540;2024-03-23T14:42:10;7.30;99.90
16102;DHT22;56411;52.964;10.540;2024-03-23T14:44:36;7.10;99.90
16102;DHT22;56411;52.964;10.540;2024-03-23T14:47:07;6.90;99.90
16102;DHT22;56411;52.964;10.540;2024-03-23T14:49:34;6.70;99.90
16102;DHT22;56411;52.964;10.540;2024-03-23T14:52:02;6.70;99.90
16102;DHT22;56411;52.964;10.540;2024-03-23T14:54:28;6.60;99.90
16102;DHT22;56411;52.964;10.540;2024-03-23T14:56:55;6.80;99.90
16102;DHT22;56411;52.964;10.540;2024-03-23T14:59:25;6.80;99.90
16102;DHT22;56411;52.964;10.540;2024-03-23T15:02:35;7.00;99.90
16102;DHT22;56411;52.964;10.540;2024-03-23T15:05:21;7.20;99.90
16102;DHT22;56411;52.964;10.540;2024-03-23T15:07:48;7.20;99.90
16102;DHT22;56411;52.964;10.540;2024-03-23T15:10:20;7.30;99.90
16102;DHT22;56411;52.964;10.540;2024-03-23T15:12:51;7.40;99.90
16102;DHT22;56411;52.964;10.540;2024-03-23T15:15:17;7.40;99.90
16102;DHT22;56411;52.964;10.540;2024-03-23T15:17:44;7.50;99.90
16102;DHT22;56411;52.964;10.540;2024-03-23T15:20:14;7.60;99.90
16102;DHT22;56411;52.964;10.540;2024-03-23T15:22:59;7.70;99.90
16102;DHT22;56411;52.964;10.540;2024-03-23T15:25:28;7.80;99.90
16102;DHT22;56411;52.964;10.540;2024-03-23T15:27:54;7.90;99.90
16102;DHT22;56411;52.964;10.540;2024-03-23T15:30:21;8.10;99.90
16102;DHT22;56411;52.964;10.540;2024-03-23T15:32:52;8.10;99.90
16102;DHT22;56411;52.964;10.540;2024-03-23T15:35:30;8.20;99.90
16102;DHT22;56411;52.964;10.540;2024-03-23T15:38:03;8.10;99.90
16102;DHT22;56411;52.964;10.540;2024-03-23T15:40:30;8.00;99.90
16102;DHT22;56411;52.964;10.540;2024-03-23T15:42:57;7.90;99.90
16102;DHT22;56411;52.964;10.540;2024-03-23T15:45:25;7.80;99.90
16102;DHT22;56411;52.964;10.540;2024-03-23T15:47:54;7.70;99.90
16102;DHT22;56411;52.964;10.540;2024-03-23T15:50:21;7.60;99.90
16102;DHT22;56411;52.964;10.540;2024-03-23T15:52:48;7.50;99.90
16102;DHT22;56411;52.964;10.540;2024-03-23T15:55:17;7.50;99.90
16102;DHT22;56411;52.964;10.540;2024-03-23T15:57:44;7.40;99.90
16102;DHT22;56411;52.964;10.540;2024-03-23T16:00:16;7.30;99.90
16102;DHT22;56411;52.964;10.540;2024-03-23T16:03:13;7.20;99.90
16102;DHT22;56411;52.964;10.540;2024-03-23T16:05:43;7.10;99.90
16102;DHT22;56411;52.964;10.540;2024-03-23T16:08:27;7.00;99.90
16102;DHT22;56411;52.964;10.540;2024-03-23T16:10:58;6.90;99.90
16102;DHT22;56411;52.964;10.540;2024-03-23T16:13:26;6.90;99.90
16102;DHT22;56411;52.964;10.540;2024-03-23T16:15:57;6.80;99.90
16102;DHT22;56411;52.964;10.540;2024-03-23T16:18:25;6.80;99.90
16102;DHT22;56411;52.964;10.540;2024-03-23T16:20:55;6.90;99.90
16102;DHT22;56411;52.964;10.540;2024-03-23T16:23:23;7.00;99.90
16102;DHT22;56411;52.964;10.540;2024-03-23T16:25:50;7.10;99.90
16102;DHT22;56411;52.964;10.540;2024-03-23T16:28:24;7.20;99.90
16102;DHT22;56411;52.964;10.540;2024-03-23T16:30:57;7.20;99.90
16102;DHT22;56411;52.964;10.540;2024-03-23T16:33:33;7.20;99.90
16102;DHT22;56411;52.964;10.540;2024-03-23T16:36:00;7.20;99.90
16102;DHT22;56411;52.964;10.540;2024-03-23T16:38:28;7.10;99.90
16102;DHT22;56411;52.964;10.540;2024-03-23T16:41:02;7.10;99.90
16102;DHT22;56411;52.964;10.540;2024-03-23T16:43:46;7.00;99.90
16102;DHT22;56411;52.964;10.540;2024-03-23T16:46:29;6.90;99.90
16102;DHT22;56411;52.964;10.540;2024-03-23T16:49:08;6.80;99.90
16102;DHT22;56411;52.964;10.540;2024-03-23T16:51:41;6.70;99.90
16102;DHT22;56411;52.964;10.540;2024-03-23T16:54:07;6.70;99.90
16102;DHT22;56411;52.964;10.540;2024-03-23T16:56:35;6.60;99.90
16102;DHT22;56411;52.964;10.540;2024-03-23T16:59:03;6.60;99.90
16102;DHT22;56411;52.964;10.540;2024-03-23T17:01:31;6.50;99.90
16102;DHT22;56411;52.964;10.540;2024-03-23T17:03:59;6.50;99.90
16102;DHT22;56411;52.964;10.540;2024-03-23T17:06:27;6.40;99.90
16102;DHT22;56411;52.964;10.540;2024-03-23T17:08:56;6.30;99.90
16102;DHT22;56411;52.964;10.540;2024-03-23T17:11:24;6.30;99.90
16102;DHT22;56411;52.964;10.540;2024-03-23T17:13:58;6.20;99.90
16102;DHT22;56411;52.964;10.540;2024-03-23T17:16:37;6.20;99.90
16102;DHT22;56411;52.964;10.540;2024-03-23T17:19:03;6.10;99.90
16102;DHT22;56411;52.964;10.540;2024-03-23T17:21:30;6.10;99.90
16102;DHT22;56411;52.964;10.540;2024-03-23T17:23:56;6.00;99.90
16102;DHT22;56411;52.964;10.540;2024-03-23T17:26:24;5.90;99.90
16102;DHT22;56411;52.964;10.540;2024-03-23T17:28:50;5.80;99.90
16102;DHT22;56411;52.964;10.540;2024-03-23T17:31:17;5.80;99.90
16102;DHT22;56411;52.964;10.540;2024-03-23T17:33:45;5.70;99.90